createdAt,value
2022-08-05T00:02:07.731Z,3.28
2022-08-05T00:04:57.328Z,3.40
2022-08-05T00:07:59.799Z,2.80
2022-08-05T00:10:47.303Z,3.17
2022-08-05T00:13:39.314Z,3.45
2022-08-05T00:16:35.700Z,3.28
2022-08-05T00:19:24.692Z,3.15
2022-08-05T00:22:11.391Z,3.20
2022-08-05T00:24:58.001Z,3.25
2022-08-05T00:27:43.942Z,3.33
2022-08-05T00:30:32.111Z,2.97
2022-08-05T00:34:56.487Z,2.80
2022-08-05T00:37:11.836Z,2.67
2022-08-05T00:39:37.063Z,3.13
2022-08-05T00:42:36.795Z,2.78
2022-08-05T00:45:37.875Z,2.78
2022-08-05T00:48:27.498Z,2.97
2022-08-05T00:51:51.178Z,2.67
2022-08-05T00:54:22.758Z,2.60
2022-08-05T00:57:14.358Z,2.53
2022-08-05T01:00:00.289Z,2.75
2022-08-05T01:02:46.199Z,2.50
2022-08-05T01:05:31.804Z,2.55
2022-08-05T01:08:41.181Z,1.90
2022-08-05T01:11:37.028Z,2.67
2022-08-05T01:14:47.942Z,2.50
2022-08-05T01:17:44.044Z,2.50
2022-08-05T01:20:50.857Z,2.65
2022-08-05T01:24:01.713Z,2.28
2022-08-05T01:27:32.978Z,2.47
2022-08-05T01:30:19.266Z,2.22
2022-08-05T01:33:25.453Z,2.95
2022-08-05T01:36:16.918Z,2.55
2022-08-05T01:39:06.933Z,2.63
2022-08-05T01:41:55.950Z,2.38
2022-08-05T01:44:45.796Z,2.70
2022-08-05T01:47:43.180Z,2.03
2022-08-05T01:50:38.592Z,2.47
2022-08-05T01:53:54.940Z,1.88
2022-08-05T01:58:18.883Z,2.45
2022-08-05T01:59:47.286Z,1.90
2022-08-05T02:02:36.749Z,1.83
2022-08-05T02:05:36.575Z,2.38
2022-08-05T02:08:30.691Z,2.20
2022-08-05T02:11:23.647Z,2.42
2022-08-05T02:14:14.711Z,2.65
2022-08-05T02:17:16.736Z,2.33
2022-08-05T02:20:22.121Z,2.55
2022-08-05T02:23:10.815Z,2.28
2022-08-05T02:26:00.331Z,2.08
2022-08-05T02:28:49.037Z,2.22
2022-08-05T02:31:37.093Z,1.90
2022-08-05T02:34:24.249Z,1.95
2022-08-05T02:37:14.918Z,1.70
2022-08-05T02:40:03.459Z,2.13
2022-08-05T02:42:53.019Z,2.40
2022-08-05T02:45:52.149Z,1.58
2022-08-05T02:48:40.124Z,1.83
2022-08-05T02:52:02.841Z,2.15
2022-08-05T02:54:41.348Z,2.40
2022-08-05T02:58:20.088Z,1.80
2022-08-05T06:07:12.931Z,2.10
2022-08-05T06:10:00.588Z,1.83
2022-08-05T06:12:49.116Z,1.67
2022-08-05T06:16:29.829Z,1.60
2022-08-05T06:18:41.626Z,1.55
2022-08-05T06:21:36.690Z,1.70
2022-08-05T06:24:27.323Z,1.50
2022-08-05T06:27:17.174Z,1.85
2022-08-05T06:30:21.196Z,2.28
2022-08-05T06:33:10.772Z,1.52
2022-08-05T06:36:08.240Z,1.73
2022-08-05T06:38:56.370Z,2.60
2022-08-05T06:41:42.995Z,1.58
2022-08-05T06:44:31.416Z,1.60
2022-08-05T06:48:11.488Z,1.73
2022-08-05T06:50:24.994Z,1.45
2022-08-05T06:53:22.516Z,1.48
2022-08-05T06:59:15.039Z,1.63
2022-08-05T07:02:00.873Z,1.90
2022-08-05T07:04:47.364Z,1.30
2022-08-05T07:07:35.393Z,1.45
2022-08-05T07:10:30.474Z,2.10
2022-08-05T07:13:57.161Z,1.58
2022-08-05T07:18:00.620Z,1.40
2022-08-05T07:23:02.835Z,1.05
2022-08-05T07:25:55.907Z,1.75
2022-08-05T07:28:42.774Z,1.67
2022-08-05T07:31:40.946Z,1.50
2022-08-05T07:34:35.252Z,1.60
2022-08-05T07:37:23.238Z,1.42
2022-08-05T07:40:26.727Z,1.92
2022-08-05T07:43:20.834Z,1.50
2022-08-05T07:46:06.980Z,1.25
2022-08-05T07:49:10.731Z,1.98
2022-08-05T07:51:56.736Z,2.55
2022-08-05T07:54:49.092Z,1.88
2022-08-05T07:57:41.837Z,1.45
2022-08-05T08:00:41.778Z,1.20
2022-08-05T08:03:44.596Z,1.02
2022-08-05T08:06:31.254Z,1.55
2022-08-05T08:09:16.940Z,1.58
2022-08-05T08:12:14.641Z,1.42
2022-08-05T08:15:15.404Z,1.40
2022-08-05T08:18:03.547Z,1.33
2022-08-05T08:21:02.289Z,1.58
2022-08-05T08:24:01.501Z,1.70
2022-08-05T08:26:50.894Z,0.98
2022-08-05T08:30:06.137Z,1.55
2022-08-05T08:32:43.940Z,1.88
2022-08-05T08:35:35.012Z,1.67
2022-08-05T08:38:35.108Z,1.48
2022-08-05T08:41:25.924Z,1.52
2022-08-05T08:45:19.091Z,1.55
2022-08-05T08:48:06.932Z,1.70
2022-08-05T08:51:07.709Z,2.03
2022-08-05T08:53:44.473Z,1.75
2022-08-05T08:56:32.294Z,1.90
2022-08-05T08:59:20.773Z,1.30
2022-08-05T09:02:08.700Z,1.50
2022-08-05T09:05:16.023Z,1.50
2022-08-05T09:08:00.863Z,1.27
2022-08-05T09:10:47.062Z,1.02
2022-08-05T09:13:50.750Z,0.90
2022-08-05T09:16:41.188Z,1.33
2022-08-05T09:19:36.414Z,1.10
2022-08-05T09:22:32.095Z,1.48
2022-08-05T09:25:24.340Z,1.45
2022-08-05T09:28:32.629Z,1.30
2022-08-05T09:31:44.023Z,1.60
2022-08-05T09:34:26.093Z,1.15
2022-08-05T09:38:17.424Z,0.90
2022-08-05T09:40:51.814Z,1.10
2022-08-05T09:43:40.951Z,1.08
2022-08-05T09:46:33.383Z,1.08
2022-08-05T09:49:54.862Z,0.90
2022-08-05T09:52:36.190Z,1.23
2022-08-05T09:55:56.449Z,1.10
2022-08-05T09:58:42.542Z,0.80
2022-08-05T10:01:32.267Z,0.65
2022-08-05T10:04:18.781Z,1.00
2022-08-05T10:07:21.073Z,1.17
2022-08-05T10:10:28.302Z,0.95
2022-08-05T10:13:27.565Z,1.15
2022-08-05T10:16:37.685Z,1.30
2022-08-05T10:19:31.887Z,1.58
2022-08-05T10:22:35.116Z,0.95
2022-08-05T10:25:24.373Z,1.00
2022-08-05T10:28:17.056Z,1.00
2022-08-05T10:32:47.765Z,1.40
2022-08-05T10:34:11.303Z,0.98
2022-08-05T10:36:57.508Z,1.00
2022-08-05T10:40:03.218Z,1.02
2022-08-05T10:42:54.208Z,1.67
2022-08-05T10:45:42.346Z,1.55
2022-08-05T10:48:57.318Z,1.40
2022-08-05T10:51:57.669Z,1.13
2022-08-05T10:55:05.203Z,0.90
2022-08-05T10:58:21.185Z,0.93
2022-08-05T11:01:07.704Z,1.00
2022-08-05T11:04:17.642Z,0.82
2022-08-05T11:07:09.236Z,0.80
2022-08-05T11:10:03.679Z,0.90
2022-08-05T11:12:58.353Z,0.82
2022-08-05T11:16:00.662Z,1.00
2022-08-05T11:18:48.226Z,0.88
2022-08-05T11:21:40.971Z,1.00
2022-08-05T11:24:35.658Z,1.48
2022-08-05T11:27:51.524Z,1.10
2022-08-05T11:30:58.495Z,1.30
2022-08-05T11:33:51.698Z,1.48
2022-08-05T11:36:52.984Z,0.95
2022-08-05T11:40:00.570Z,1.20
2022-08-05T11:42:49.916Z,1.35
2022-08-05T11:46:15.004Z,1.52
2022-08-05T11:48:54.892Z,1.60
2022-08-05T11:51:49.466Z,1.55
2022-08-05T11:54:38.283Z,1.13
2022-08-05T11:58:08.038Z,1.60
2022-08-05T12:14:43.307Z,1.42
2022-08-05T12:18:03.265Z,1.23
2022-08-05T12:20:41.879Z,1.30
2022-08-05T12:23:27.951Z,1.33
2022-08-05T12:26:15.295Z,1.05
2022-08-05T12:29:01.359Z,1.00
2022-08-05T12:31:55.320Z,1.13
2022-08-05T12:34:43.211Z,1.05
2022-08-05T12:37:30.081Z,0.95
2022-08-05T12:40:26.544Z,0.98
2022-08-05T12:43:20.606Z,1.38
2022-08-05T12:46:07.276Z,1.35
2022-08-05T12:49:13.588Z,1.55
2022-08-05T12:52:12.629Z,0.95
2022-08-05T12:55:18.218Z,1.27
2022-08-05T12:58:48.952Z,1.10
2022-08-05T13:02:01.237Z,0.85
2022-08-05T13:04:21.851Z,1.05
2022-08-05T13:07:17.377Z,1.13
2022-08-05T13:10:19.900Z,0.77
2022-08-05T13:13:06.763Z,0.93
2022-08-05T13:15:54.706Z,1.20
2022-08-05T13:18:55.265Z,0.93
2022-08-05T13:21:52.320Z,0.95
2022-08-05T13:24:57.620Z,0.80
2022-08-05T13:27:50.278Z,0.73
2022-08-05T13:30:39.228Z,0.82
2022-08-05T13:34:21.361Z,0.80
2022-08-05T13:36:31.091Z,0.80
2022-08-05T13:40:13.055Z,1.00
2022-08-05T13:42:23.391Z,1.42
2022-08-05T13:45:12.106Z,2.72
2022-08-05T13:48:09.954Z,1.58
2022-08-05T13:51:13.662Z,1.42
2022-08-05T13:53:59.940Z,1.60
2022-08-05T13:56:50.947Z,0.90
2022-08-05T13:59:37.703Z,0.80
2022-08-05T14:02:43.322Z,0.98
2022-08-05T14:05:48.220Z,1.23
2022-08-05T14:08:35.300Z,1.02
2022-08-05T14:11:22.053Z,0.88
2022-08-05T14:14:08.895Z,0.88
2022-08-05T14:16:55.367Z,1.02
2022-08-05T14:19:54.600Z,0.90
2022-08-05T14:22:50.241Z,0.73
2022-08-05T14:25:36.165Z,0.90
2022-08-05T14:28:31.308Z,0.80
2022-08-05T14:32:03.751Z,0.82
2022-08-05T14:34:23.690Z,0.80
2022-08-05T14:37:13.301Z,1.77
2022-08-05T14:39:59.876Z,1.35
2022-08-05T14:42:45.959Z,1.00
2022-08-05T14:45:31.491Z,0.77
2022-08-05T14:48:33.234Z,1.55
2022-08-05T14:51:20.052Z,0.77
2022-08-05T14:54:26.637Z,1.05
2022-08-05T14:57:13.709Z,1.25
2022-08-05T14:59:59.503Z,1.30
2022-08-05T15:02:46.216Z,1.08
2022-08-05T15:06:08.126Z,1.10
2022-08-05T15:09:01.279Z,1.10
2022-08-05T15:11:52.885Z,0.95
2022-08-05T15:14:42.253Z,1.30
2022-08-05T15:17:47.373Z,1.83
2022-08-05T15:20:37.262Z,2.58
2022-08-05T15:23:23.726Z,2.25
2022-08-05T15:26:09.572Z,1.52
2022-08-05T15:28:55.459Z,1.20
2022-08-05T15:31:41.207Z,1.20
2022-08-05T15:34:33.087Z,2.03
2022-08-05T15:38:08.419Z,0.88
2022-08-05T15:40:59.097Z,1.50
2022-08-05T15:43:31.154Z,2.40
2022-08-05T15:46:31.873Z,3.80
2022-08-05T15:49:26.220Z,3.80
2022-08-05T15:52:51.618Z,3.97
2022-08-05T15:56:03.071Z,3.70
2022-08-05T15:58:37.191Z,3.38
2022-08-05T16:01:29.305Z,3.28
2022-08-05T16:04:15.407Z,3.72
2022-08-05T16:07:04.257Z,3.47
2022-08-05T16:09:51.722Z,3.55
2022-08-05T16:12:40.176Z,4.05
2022-08-05T16:15:32.668Z,4.72
2022-08-05T16:18:20.205Z,3.63
2022-08-05T16:21:14.918Z,4.10
2022-08-05T16:24:03.469Z,4.38
2022-08-05T16:27:00.508Z,4.10
2022-08-05T16:29:50.285Z,4.10
2022-08-05T16:32:36.910Z,3.38
2022-08-05T16:35:27.986Z,3.90
2022-08-05T16:38:25.423Z,3.63
2022-08-05T16:42:12.259Z,4.53
2022-08-05T16:44:21.099Z,4.32
2022-08-05T16:47:24.671Z,4.25
2022-08-05T16:50:17.970Z,4.43
2022-08-05T16:53:12.273Z,4.45
2022-08-05T16:55:58.688Z,4.88
2022-08-05T16:58:44.641Z,5.18
2022-08-05T17:01:52.999Z,4.97
2022-08-05T17:04:36.483Z,6.22
2022-08-05T17:07:43.609Z,5.32
2022-08-05T17:10:32.093Z,6.85
2022-08-05T17:13:21.311Z,6.40
2022-08-05T17:16:33.451Z,6.47
2022-08-05T17:19:21.450Z,7.10
2022-08-05T17:22:07.158Z,6.25
2022-08-05T17:24:56.844Z,5.75
2022-08-05T17:27:44.269Z,5.97
2022-08-05T17:30:30.091Z,4.63
2022-08-05T17:33:16.164Z,5.50
2022-08-05T17:36:07.465Z,4.30
2022-08-05T17:42:20.438Z,4.25
2022-08-05T17:44:50.899Z,3.00
2022-08-05T17:47:37.867Z,3.28
2022-08-05T17:50:28.234Z,4.00
2022-08-05T17:53:15.875Z,2.80
2022-08-05T17:56:06.642Z,3.25
2022-08-05T17:58:53.450Z,3.72
2022-08-05T18:01:49.579Z,4.50
2022-08-05T18:04:36.318Z,5.07
2022-08-05T18:07:41.131Z,5.20
2022-08-05T18:10:28.105Z,7.03
2022-08-05T18:13:17.943Z,5.45
2022-08-05T18:16:04.914Z,7.30
2022-08-05T18:18:50.872Z,8.50
2022-08-05T18:22:08.499Z,9.55
2022-08-05T18:24:42.507Z,10.85
2022-08-05T18:27:28.382Z,10.80
2022-08-05T18:30:14.686Z,10.38
2022-08-05T18:33:01.263Z,10.00
2022-08-05T18:36:00.981Z,10.43
2022-08-05T18:38:49.531Z,10.05
2022-08-05T18:42:00.543Z,9.95
2022-08-05T18:44:49.447Z,9.55
2022-08-05T18:47:42.255Z,8.93
2022-08-05T18:50:46.984Z,8.00
2022-08-05T18:53:34.713Z,9.57
2022-08-05T18:56:29.330Z,10.25
2022-08-05T18:59:44.113Z,9.80
2022-08-05T19:02:27.769Z,8.57
2022-08-05T19:06:11.039Z,8.98
2022-08-05T19:08:21.651Z,9.25
2022-08-05T19:11:07.856Z,8.07
2022-08-05T19:14:00.773Z,8.50
2022-08-05T19:16:47.771Z,8.63
2022-08-05T19:19:33.395Z,7.35
2022-08-05T19:22:22.778Z,10.23
2022-08-05T19:28:16.828Z,6.70
2022-08-05T19:31:05.875Z,7.10
2022-08-05T19:33:56.462Z,6.63
2022-08-05T19:36:43.451Z,6.78
2022-08-05T19:39:45.568Z,7.18
2022-08-05T19:42:36.881Z,7.32
2022-08-05T19:45:25.594Z,7.80
2022-08-05T19:48:14.260Z,7.07
2022-08-05T19:51:00.375Z,6.75
2022-08-05T19:54:04.999Z,7.82
2022-08-05T19:56:51.997Z,7.88
2022-08-05T19:59:55.339Z,7.60
2022-08-05T20:02:46.486Z,7.85
2022-08-05T20:05:50.141Z,10.35
2022-08-05T20:08:36.633Z,10.45
2022-08-05T20:11:24.684Z,12.20
2022-08-05T20:14:14.413Z,13.07
2022-08-05T20:17:06.475Z,14.05
2022-08-05T20:19:56.693Z,16.92
2022-08-05T20:22:43.317Z,17.95
2022-08-05T20:25:33.866Z,18.73
2022-08-05T20:28:25.572Z,16.50
2022-08-05T20:31:13.031Z,15.30
2022-08-05T20:33:58.966Z,20.63
2022-08-05T20:36:44.713Z,22.92
2022-08-05T20:39:36.616Z,16.42
2022-08-05T20:42:22.873Z,16.30
2022-08-05T20:45:13.969Z,16.75
2022-08-05T20:48:00.357Z,16.80
2022-08-05T20:50:47.015Z,18.80
2022-08-05T20:53:36.828Z,19.85
2022-08-05T20:56:27.653Z,20.45
2022-08-05T20:59:26.226Z,19.13
2022-08-05T21:02:12.951Z,19.98
2022-08-05T21:05:05.736Z,21.70
2022-08-05T21:07:55.186Z,20.73
2022-08-05T21:10:48.476Z,20.88
2022-08-05T21:16:40.947Z,22.52
2022-08-05T21:19:26.799Z,23.45
2022-08-05T21:22:14.724Z,24.08
2022-08-05T21:25:04.367Z,24.60
2022-08-05T21:27:52.966Z,24.00
2022-08-05T21:30:40.052Z,23.10
2022-08-05T21:33:37.119Z,26.00
2022-08-05T21:36:30.057Z,23.77
2022-08-05T21:39:17.003Z,22.75
2022-08-05T21:42:31.004Z,22.77
2022-08-05T21:45:25.241Z,18.92
2022-08-05T21:48:24.475Z,21.35
2022-08-05T21:52:16.637Z,22.35
2022-08-05T21:54:16.401Z,21.35
2022-08-05T21:57:31.288Z,22.38
2022-08-05T22:00:18.561Z,19.42
2022-08-05T22:03:04.935Z,18.77
2022-08-05T22:05:50.894Z,17.85
2022-08-05T22:08:36.791Z,16.95
2022-08-05T22:11:35.182Z,15.63
2022-08-05T22:14:35.793Z,17.27
2022-08-05T22:17:24.309Z,18.17
2022-08-05T22:20:14.737Z,17.77
2022-08-05T22:23:21.366Z,15.70
2022-08-05T22:26:34.211Z,16.52
2022-08-05T22:29:26.244Z,17.63
2022-08-05T22:32:12.223Z,16.13
2022-08-05T22:35:03.788Z,14.95
2022-08-05T22:37:58.013Z,13.90
2022-08-05T22:40:50.023Z,12.80
2022-08-05T22:43:41.344Z,12.25
2022-08-05T22:46:27.313Z,11.35
2022-08-05T22:50:17.596Z,13.60
2022-08-05T22:52:22.905Z,11.90
2022-08-05T22:55:21.339Z,12.00
2022-08-05T22:58:07.500Z,12.95
2022-08-05T23:00:57.548Z,12.77
2022-08-05T23:03:58.000Z,12.50
2022-08-05T23:06:45.361Z,12.63
2022-08-05T23:09:57.166Z,11.45
2022-08-05T23:12:38.226Z,11.10
2022-08-05T23:15:29.436Z,11.07
2022-08-05T23:18:20.578Z,9.82
2022-08-05T23:21:10.084Z,8.75
2022-08-05T23:23:56.347Z,9.60
2022-08-05T23:26:42.343Z,8.70
2022-08-05T23:29:29.849Z,7.72
2022-08-05T23:32:22.696Z,7.63
2022-08-05T23:35:09.459Z,7.07
2022-08-05T23:37:55.344Z,7.95
2022-08-05T23:40:42.245Z,7.90
2022-08-05T23:43:37.261Z,8.70
2022-08-05T23:46:41.180Z,7.00
2022-08-05T23:49:36.028Z,7.95
2022-08-05T23:52:29.391Z,6.40
2022-08-05T23:55:16.556Z,7.32
2022-08-05T23:58:03.604Z,5.32
